sensor_id;sensor_type;location;lat;lon;timestamp;P1;durP1;ratioP1;P2;durP2;ratioP2
73107;SDS011;61559;50.476;15.588;2022-11-23T00:00:00;17.80;;;8.20;;
73107;SDS011;61559;50.476;15.588;2022-11-23T00:02:32;20.60;;;10.10;;
73107;SDS011;61559;50.476;15.588;2022-11-23T00:05:03;20.20;;;9.00;;
73107;SDS011;61559;50.476;15.588;2022-11-23T00:07:35;17.90;;;8.30;;
73107;SDS011;61559;50.476;15.588;2022-11-23T00:10:07;17.70;;;8.70;;
73107;SDS011;61559;50.476;15.588;2022-11-23T00:12:38;24.80;;;10.00;;
73107;SDS011;61559;50.476;15.588;2022-11-23T00:15:10;21.50;;;10.10;;
73107;SDS011;61559;50.476;15.588;2022-11-23T00:17:42;19.20;;;9.00;;
73107;SDS011;61559;50.476;15.588;2022-11-23T00:20:15;20.70;;;9.20;;
73107;SDS011;61559;50.476;15.588;2022-11-23T00:22:46;21.40;;;10.30;;
73107;SDS011;61559;50.476;15.588;2022-11-23T00:25:17;16.70;;;9.00;;
73107;SDS011;61559;50.476;15.588;2022-11-23T00:27:48;18.20;;;8.80;;
73107;SDS011;61559;50.476;15.588;2022-11-23T00:30:19;20.40;;;9.00;;
73107;SDS011;61559;50.476;15.588;2022-11-23T00:32:50;18.40;;;8.50;;
73107;SDS011;61559;50.476;15.588;2022-11-23T00:35:22;17.00;;;9.20;;
73107;SDS011;61559;50.476;15.588;2022-11-23T00:37:53;21.40;;;10.10;;
73107;SDS011;61559;50.476;15.588;2022-11-23T00:40:24;19.80;;;9.00;;
73107;SDS011;61559;50.476;15.588;2022-11-23T00:42:54;19.20;;;9.40;;
73107;SDS011;61559;50.476;15.588;2022-11-23T00:45:26;22.40;;;10.10;;
73107;SDS011;61559;50.476;15.588;2022-11-23T00:47:56;19.60;;;9.40;;
73107;SDS011;61559;50.476;15.588;2022-11-23T00:50:27;19.00;;;8.30;;
73107;SDS011;61559;50.476;15.588;2022-11-23T00:52:58;17.70;;;8.90;;
73107;SDS011;61559;50.476;15.588;2022-11-23T00:55:29;19.30;;;9.30;;
73107;SDS011;61559;50.476;15.588;2022-11-23T01:00:30;16.20;;;7.80;;
73107;SDS011;61559;50.476;15.588;2022-11-23T01:03:01;20.20;;;9.10;;
73107;SDS011;61559;50.476;15.588;2022-11-23T01:05:35;17.50;;;9.00;;
73107;SDS011;61559;50.476;15.588;2022-11-23T01:08:06;21.40;;;9.60;;
73107;SDS011;61559;50.476;15.588;2022-11-23T01:10:38;19.00;;;9.30;;
73107;SDS011;61559;50.476;15.588;2022-11-23T01:13:09;17.90;;;9.40;;
73107;SDS011;61559;50.476;15.588;2022-11-23T01:15:41;20.30;;;9.70;;
73107;SDS011;61559;50.476;15.588;2022-11-23T01:18:19;17.80;;;8.80;;
73107;SDS011;61559;50.476;15.588;2022-11-23T01:20:50;17.00;;;8.30;;
73107;SDS011;61559;50.476;15.588;2022-11-23T01:23:21;21.50;;;9.50;;
73107;SDS011;61559;50.476;15.588;2022-11-23T01:25:52;19.00;;;8.40;;
73107;SDS011;61559;50.476;15.588;2022-11-23T01:28:24;21.30;;;10.20;;
73107;SDS011;61559;50.476;15.588;2022-11-23T01:31:01;19.80;;;9.10;;
73107;SDS011;61559;50.476;15.588;2022-11-23T01:33:34;21.90;;;8.90;;
73107;SDS011;61559;50.476;15.588;2022-11-23T01:36:10;20.70;;;9.80;;
73107;SDS011;61559;50.476;15.588;2022-11-23T01:38:42;25.40;;;10.50;;
73107;SDS011;61559;50.476;15.588;2022-11-23T01:41:16;22.20;;;9.10;;
73107;SDS011;61559;50.476;15.588;2022-11-23T01:43:48;20.20;;;9.60;;
73107;SDS011;61559;50.476;15.588;2022-11-23T01:46:20;22.00;;;9.60;;
73107;SDS011;61559;50.476;15.588;2022-11-23T01:48:53;21.20;;;9.50;;
73107;SDS011;61559;50.476;15.588;2022-11-23T01:51:26;19.80;;;9.00;;
73107;SDS011;61559;50.476;15.588;2022-11-23T01:54:01;20.00;;;9.40;;
73107;SDS011;61559;50.476;15.588;2022-11-23T01:56:38;19.20;;;9.20;;
73107;SDS011;61559;50.476;15.588;2022-11-23T01:59:12;20.10;;;9.30;;
73107;SDS011;61559;50.476;15.588;2022-11-23T02:01:45;20.20;;;9.70;;
73107;SDS011;61559;50.476;15.588;2022-11-23T02:04:16;18.60;;;8.60;;
73107;SDS011;61559;50.476;15.588;2022-11-23T02:06:51;18.20;;;9.30;;
73107;SDS011;61559;50.476;15.588;2022-11-23T02:09:23;20.80;;;9.20;;
73107;SDS011;61559;50.476;15.588;2022-11-23T02:11:54;18.90;;;9.10;;
73107;SDS011;61559;50.476;15.588;2022-11-23T02:14:25;18.20;;;8.90;;
73107;SDS011;61559;50.476;15.588;2022-11-23T02:16:58;21.40;;;9.10;;
73107;SDS011;61559;50.476;15.588;2022-11-23T02:19:30;21.10;;;9.80;;
73107;SDS011;61559;50.476;15.588;2022-11-23T02:22:12;20.60;;;9.90;;
73107;SDS011;61559;50.476;15.588;2022-11-23T02:25:01;17.90;;;9.40;;
73107;SDS011;61559;50.476;15.588;2022-11-23T02:27:38;21.70;;;9.30;;
73107;SDS011;61559;50.476;15.588;2022-11-23T02:30:14;22.90;;;10.00;;
73107;SDS011;61559;50.476;15.588;2022-11-23T02:32:46;20.80;;;10.10;;
73107;SDS011;61559;50.476;15.588;2022-11-23T02:35:17;19.50;;;10.00;;
73107;SDS011;61559;50.476;15.588;2022-11-23T02:37:48;18.60;;;9.10;;
73107;SDS011;61559;50.476;15.588;2022-11-23T02:40:22;18.00;;;9.00;;
73107;SDS011;61559;50.476;15.588;2022-11-23T02:42:56;20.30;;;8.70;;
73107;SDS011;61559;50.476;15.588;2022-11-23T02:45:46;16.90;;;8.50;;
73107;SDS011;61559;50.476;15.588;2022-11-23T02:48:21;20.10;;;8.90;;
73107;SDS011;61559;50.476;15.588;2022-11-23T02:50:52;19.90;;;9.50;;
73107;SDS011;61559;50.476;15.588;2022-11-23T02:53:23;22.90;;;9.10;;
73107;SDS011;61559;50.476;15.588;2022-11-23T02:55:54;20.00;;;9.80;;
73107;SDS011;61559;50.476;15.588;2022-11-23T02:58:25;20.30;;;9.70;;
73107;SDS011;61559;50.476;15.588;2022-11-23T03:00:56;17.80;;;9.20;;
73107;SDS011;61559;50.476;15.588;2022-11-23T03:03:27;21.30;;;10.00;;
73107;SDS011;61559;50.476;15.588;2022-11-23T03:05:58;21.40;;;9.60;;
73107;SDS011;61559;50.476;15.588;2022-11-23T03:08:29;21.70;;;9.00;;
73107;SDS011;61559;50.476;15.588;2022-11-23T03:11:00;20.80;;;9.40;;
73107;SDS011;61559;50.476;15.588;2022-11-23T03:16:01;19.50;;;9.60;;
73107;SDS011;61559;50.476;15.588;2022-11-23T03:21:03;19.00;;;8.90;;
73107;SDS011;61559;50.476;15.588;2022-11-23T03:23:35;20.60;;;8.50;;
73107;SDS011;61559;50.476;15.588;2022-11-23T03:26:06;19.60;;;9.30;;
73107;SDS011;61559;50.476;15.588;2022-11-23T03:28:40;15.60;;;8.50;;
73107;SDS011;61559;50.476;15.588;2022-11-23T03:31:11;21.70;;;9.20;;
73107;SDS011;61559;50.476;15.588;2022-11-23T03:33:42;21.40;;;9.70;;
73107;SDS011;61559;50.476;15.588;2022-11-23T03:36:13;18.00;;;9.30;;
73107;SDS011;61559;50.476;15.588;2022-11-23T03:38:44;17.60;;;8.40;;
73107;SDS011;61559;50.476;15.588;2022-11-23T03:41:15;19.80;;;9.10;;
73107;SDS011;61559;50.476;15.588;2022-11-23T03:43:46;18.00;;;8.80;;
73107;SDS011;61559;50.476;15.588;2022-11-23T03:46:17;20.90;;;9.90;;
73107;SDS011;61559;50.476;15.588;2022-11-23T03:48:48;18.80;;;9.60;;
73107;SDS011;61559;50.476;15.588;2022-11-23T03:51:19;22.10;;;10.80;;
73107;SDS011;61559;50.476;15.588;2022-11-23T03:53:50;19.70;;;9.40;;
73107;SDS011;61559;50.476;15.588;2022-11-23T03:58:51;19.10;;;9.00;;
73107;SDS011;61559;50.476;15.588;2022-11-23T04:06:23;18.10;;;8.70;;
73107;SDS011;61559;50.476;15.588;2022-11-23T04:08:54;19.70;;;9.40;;
73107;SDS011;61559;50.476;15.588;2022-11-23T04:11:29;18.10;;;8.50;;
73107;SDS011;61559;50.476;15.588;2022-11-23T04:14:00;19.80;;;9.20;;
73107;SDS011;61559;50.476;15.588;2022-11-23T04:16:31;20.90;;;9.90;;
73107;SDS011;61559;50.476;15.588;2022-11-23T04:19:02;18.30;;;9.80;;
73107;SDS011;61559;50.476;15.588;2022-11-23T04:21:33;20.10;;;9.70;;
73107;SDS011;61559;50.476;15.588;2022-11-23T04:24:04;19.00;;;9.00;;
73107;SDS011;61559;50.476;15.588;2022-11-23T04:26:35;19.20;;;8.60;;
73107;SDS011;61559;50.476;15.588;2022-11-23T04:29:07;15.70;;;8.20;;
73107;SDS011;61559;50.476;15.588;2022-11-23T04:31:38;17.60;;;9.20;;
73107;SDS011;61559;50.476;15.588;2022-11-23T04:36:39;15.70;;;8.60;;
73107;SDS011;61559;50.476;15.588;2022-11-23T04:39:10;16.80;;;8.20;;
73107;SDS011;61559;50.476;15.588;2022-11-23T04:44:11;16.20;;;7.70;;
73107;SDS011;61559;50.476;15.588;2022-11-23T04:46:42;18.30;;;8.20;;
73107;SDS011;61559;50.476;15.588;2022-11-23T04:49:13;15.10;;;8.00;;
73107;SDS011;61559;50.476;15.588;2022-11-23T04:51:44;17.00;;;8.20;;
73107;SDS011;61559;50.476;15.588;2022-11-23T04:54:16;17.30;;;8.20;;
73107;SDS011;61559;50.476;15.588;2022-11-23T04:56:47;16.90;;;8.20;;
73107;SDS011;61559;50.476;15.588;2022-11-23T04:59:18;20.70;;;9.30;;
73107;SDS011;61559;50.476;15.588;2022-11-23T05:01:50;13.90;;;7.40;;
73107;SDS011;61559;50.476;15.588;2022-11-23T05:04:21;19.80;;;8.60;;
73107;SDS011;61559;50.476;15.588;2022-11-23T05:06:52;15.30;;;7.80;;
73107;SDS011;61559;50.476;15.588;2022-11-23T05:09:23;19.50;;;9.50;;
73107;SDS011;61559;50.476;15.588;2022-11-23T05:11:54;17.40;;;8.70;;
73107;SDS011;61559;50.476;15.588;2022-11-23T05:14:26;14.60;;;8.10;;
73107;SDS011;61559;50.476;15.588;2022-11-23T05:16:57;17.80;;;8.70;;
73107;SDS011;61559;50.476;15.588;2022-11-23T05:19:28;15.00;;;8.70;;
73107;SDS011;61559;50.476;15.588;2022-11-23T05:21:59;15.60;;;7.90;;
73107;SDS011;61559;50.476;15.588;2022-11-23T05:24:31;15.50;;;8.10;;
73107;SDS011;61559;50.476;15.588;2022-11-23T05:27:02;14.10;;;7.90;;
73107;SDS011;61559;50.476;15.588;2022-11-23T05:29:33;15.00;;;8.70;;
73107;SDS011;61559;50.476;15.588;2022-11-23T05:32:04;17.90;;;8.90;;
73107;SDS011;61559;50.476;15.588;2022-11-23T05:37:05;15.50;;;7.30;;
73107;SDS011;61559;50.476;15.588;2022-11-23T05:39:36;16.00;;;8.30;;
73107;SDS011;61559;50.476;15.588;2022-11-23T05:42:07;15.90;;;7.70;;
73107;SDS011;61559;50.476;15.588;2022-11-23T05:44:37;16.80;;;8.10;;
73107;SDS011;61559;50.476;15.588;2022-11-23T05:47:08;14.40;;;8.20;;
73107;SDS011;61559;50.476;15.588;2022-11-23T05:49:40;18.70;;;8.70;;
73107;SDS011;61559;50.476;15.588;2022-11-23T05:52:11;18.00;;;8.30;;
73107;SDS011;61559;50.476;15.588;2022-11-23T05:54:42;16.80;;;8.70;;
73107;SDS011;61559;50.476;15.588;2022-11-23T05:57:13;17.80;;;8.70;;
73107;SDS011;61559;50.476;15.588;2022-11-23T05:59:44;18.00;;;8.60;;
73107;SDS011;61559;50.476;15.588;2022-11-23T06:02:16;17.60;;;8.30;;
73107;SDS011;61559;50.476;15.588;2022-11-23T06:04:47;18.30;;;8.80;;
73107;SDS011;61559;50.476;15.588;2022-11-23T06:07:18;16.30;;;8.10;;
73107;SDS011;61559;50.476;15.588;2022-11-23T06:09:49;15.90;;;8.00;;
73107;SDS011;61559;50.476;15.588;2022-11-23T06:12:20;17.50;;;8.30;;
73107;SDS011;61559;50.476;15.588;2022-11-23T06:14:51;14.90;;;8.40;;
73107;SDS011;61559;50.476;15.588;2022-11-23T06:17:22;15.50;;;7.40;;
73107;SDS011;61559;50.476;15.588;2022-11-23T06:19:53;20.70;;;10.30;;
73107;SDS011;61559;50.476;15.588;2022-11-23T06:22:24;25.40;;;12.00;;
73107;SDS011;61559;50.476;15.588;2022-11-23T06:24:55;29.30;;;13.70;;
73107;SDS011;61559;50.476;15.588;2022-11-23T06:27:26;32.90;;;15.70;;
73107;SDS011;61559;50.476;15.588;2022-11-23T06:29:57;28.90;;;13.40;;
73107;SDS011;61559;50.476;15.588;2022-11-23T06:32:28;22.00;;;10.60;;
73107;SDS011;61559;50.476;15.588;2022-11-23T06:34:59;18.20;;;9.50;;
73107;SDS011;61559;50.476;15.588;2022-11-23T06:37:30;18.20;;;8.60;;
73107;SDS011;61559;50.476;15.588;2022-11-23T06:40:02;18.70;;;8.70;;
73107;SDS011;61559;50.476;15.588;2022-11-23T06:45:07;18.50;;;9.90;;
73107;SDS011;61559;50.476;15.588;2022-11-23T06:47:39;16.70;;;9.10;;
73107;SDS011;61559;50.476;15.588;2022-11-23T06:50:11;22.70;;;9.80;;
73107;SDS011;61559;50.476;15.588;2022-11-23T06:52:42;19.50;;;9.20;;
73107;SDS011;61559;50.476;15.588;2022-11-23T06:55:13;20.20;;;10.30;;
73107;SDS011;61559;50.476;15.588;2022-11-23T07:00:15;16.40;;;8.50;;
73107;SDS011;61559;50.476;15.588;2022-11-23T07:02:51;22.10;;;9.20;;
73107;SDS011;61559;50.476;15.588;2022-11-23T07:05:26;18.80;;;9.00;;
73107;SDS011;61559;50.476;15.588;2022-11-23T07:07:58;17.80;;;8.80;;
73107;SDS011;61559;50.476;15.588;2022-11-23T07:10:29;19.60;;;8.30;;
73107;SDS011;61559;50.476;15.588;2022-11-23T07:15:45;16.60;;;7.80;;
73107;SDS011;61559;50.476;15.588;2022-11-23T07:18:16;16.30;;;8.30;;
73107;SDS011;61559;50.476;15.588;2022-11-23T07:20:48;18.20;;;8.70;;
73107;SDS011;61559;50.476;15.588;2022-11-23T07:23:20;16.10;;;8.60;;
73107;SDS011;61559;50.476;15.588;2022-11-23T07:25:51;18.80;;;9.80;;
73107;SDS011;61559;50.476;15.588;2022-11-23T07:28:21;23.20;;;11.70;;
73107;SDS011;61559;50.476;15.588;2022-11-23T07:30:53;22.00;;;11.10;;
73107;SDS011;61559;50.476;15.588;2022-11-23T07:33:23;24.50;;;13.00;;
73107;SDS011;61559;50.476;15.588;2022-11-23T07:35:54;23.00;;;11.20;;
73107;SDS011;61559;50.476;15.588;2022-11-23T07:38:28;24.90;;;12.00;;
73107;SDS011;61559;50.476;15.588;2022-11-23T07:41:00;26.20;;;13.70;;
73107;SDS011;61559;50.476;15.588;2022-11-23T07:43:31;27.80;;;13.00;;
73107;SDS011;61559;50.476;15.588;2022-11-23T07:46:03;29.40;;;14.10;;
73107;SDS011;61559;50.476;15.588;2022-11-23T07:48:34;26.80;;;12.50;;
73107;SDS011;61559;50.476;15.588;2022-11-23T07:51:05;28.70;;;12.60;;
73107;SDS011;61559;50.476;15.588;2022-11-23T07:53:36;26.40;;;13.40;;
73107;SDS011;61559;50.476;15.588;2022-11-23T07:56:08;28.50;;;13.90;;
73107;SDS011;61559;50.476;15.588;2022-11-23T07:58:39;23.40;;;12.30;;
73107;SDS011;61559;50.476;15.588;2022-11-23T08:01:09;27.20;;;14.20;;
73107;SDS011;61559;50.476;15.588;2022-11-23T08:03:45;27.00;;;13.00;;
73107;SDS011;61559;50.476;15.588;2022-11-23T08:06:17;24.30;;;12.30;;
73107;SDS011;61559;50.476;15.588;2022-11-23T08:08:48;25.30;;;12.20;;
73107;SDS011;61559;50.476;15.588;2022-11-23T08:11:19;26.60;;;12.00;;
73107;SDS011;61559;50.476;15.588;2022-11-23T08:13:51;31.30;;;13.70;;
73107;SDS011;61559;50.476;15.588;2022-11-23T08:16:22;21.60;;;13.10;;
73107;SDS011;61559;50.476;15.588;2022-11-23T08:18:53;24.50;;;11.20;;
73107;SDS011;61559;50.476;15.588;2022-11-23T08:21:24;27.60;;;13.10;;
73107;SDS011;61559;50.476;15.588;2022-11-23T08:23:55;23.70;;;12.20;;
73107;SDS011;61559;50.476;15.588;2022-11-23T08:26:26;25.20;;;12.50;;
73107;SDS011;61559;50.476;15.588;2022-11-23T08:28:57;25.60;;;12.40;;
73107;SDS011;61559;50.476;15.588;2022-11-23T08:31:28;25.40;;;12.70;;
73107;SDS011;61559;50.476;15.588;2022-11-23T08:33:59;24.80;;;12.40;;
73107;SDS011;61559;50.476;15.588;2022-11-23T08:36:31;25.50;;;12.30;;
73107;SDS011;61559;50.476;15.588;2022-11-23T08:39:02;22.00;;;11.30;;
73107;SDS011;61559;50.476;15.588;2022-11-23T08:41:33;22.70;;;10.90;;
73107;SDS011;61559;50.476;15.588;2022-11-23T08:44:04;25.50;;;12.90;;
73107;SDS011;61559;50.476;15.588;2022-11-23T08:46:38;24.20;;;12.40;;
73107;SDS011;61559;50.476;15.588;2022-11-23T08:49:09;28.00;;;13.20;;
73107;SDS011;61559;50.476;15.588;2022-11-23T08:51:40;29.60;;;14.70;;
73107;SDS011;61559;50.476;15.588;2022-11-23T08:54:17;55.00;;;27.10;;
73107;SDS011;61559;50.476;15.588;2022-11-23T08:56:50;56.90;;;27.80;;
73107;SDS011;61559;50.476;15.588;2022-11-23T08:59:21;51.30;;;24.20;;
73107;SDS011;61559;50.476;15.588;2022-11-23T09:01:52;46.30;;;22.90;;
73107;SDS011;61559;50.476;15.588;2022-11-23T09:04:23;48.20;;;23.60;;
73107;SDS011;61559;50.476;15.588;2022-11-23T09:06:56;39.60;;;19.00;;
73107;SDS011;61559;50.476;15.588;2022-11-23T09:09:27;38.70;;;17.90;;
73107;SDS011;61559;50.476;15.588;2022-11-23T09:11:58;30.30;;;15.30;;
73107;SDS011;61559;50.476;15.588;2022-11-23T09:14:29;35.10;;;16.20;;
73107;SDS011;61559;50.476;15.588;2022-11-23T09:17:01;31.40;;;14.50;;
73107;SDS011;61559;50.476;15.588;2022-11-23T09:19:33;29.20;;;13.70;;
73107;SDS011;61559;50.476;15.588;2022-11-23T09:22:03;27.20;;;12.10;;
73107;SDS011;61559;50.476;15.588;2022-11-23T09:24:34;28.50;;;13.30;;
73107;SDS011;61559;50.476;15.588;2022-11-23T09:27:05;27.60;;;12.80;;
73107;SDS011;61559;50.476;15.588;2022-11-23T09:29:36;28.20;;;12.40;;
73107;SDS011;61559;50.476;15.588;2022-11-23T09:32:08;25.10;;;12.00;;
73107;SDS011;61559;50.476;15.588;2022-11-23T09:34:38;20.80;;;10.90;;
73107;SDS011;61559;50.476;15.588;2022-11-23T09:37:09;28.80;;;12.20;;
73107;SDS011;61559;50.476;15.588;2022-11-23T09:39:40;28.80;;;12.70;;
73107;SDS011;61559;50.476;15.588;2022-11-23T09:42:18;24.20;;;11.80;;
73107;SDS011;61559;50.476;15.588;2022-11-23T09:47:42;24.90;;;11.70;;
73107;SDS011;61559;50.476;15.588;2022-11-23T09:50:25;25.30;;;12.50;;
73107;SDS011;61559;50.476;15.588;2022-11-23T09:53:02;28.60;;;13.00;;
73107;SDS011;61559;50.476;15.588;2022-11-23T09:55:40;28.40;;;14.40;;
73107;SDS011;61559;50.476;15.588;2022-11-23T09:58:14;30.10;;;14.60;;
73107;SDS011;61559;50.476;15.588;2022-11-23T10:00:47;28.50;;;12.20;;
73107;SDS011;61559;50.476;15.588;2022-11-23T10:03:21;24.50;;;12.50;;
73107;SDS011;61559;50.476;15.588;2022-11-23T10:05:56;27.60;;;12.40;;
73107;SDS011;61559;50.476;15.588;2022-11-23T10:08:38;29.90;;;13.40;;
73107;SDS011;61559;50.476;15.588;2022-11-23T10:11:29;30.60;;;13.80;;
73107;SDS011;61559;50.476;15.588;2022-11-23T10:14:15;28.80;;;13.40;;
73107;SDS011;61559;50.476;15.588;2022-11-23T10:17:04;27.60;;;13.20;;
73107;SDS011;61559;50.476;15.588;2022-11-23T10:19:54;33.80;;;14.40;;
73107;SDS011;61559;50.476;15.588;2022-11-23T10:22:37;26.70;;;13.20;;
73107;SDS011;61559;50.476;15.588;2022-11-23T10:25:14;25.20;;;13.10;;
73107;SDS011;61559;50.476;15.588;2022-11-23T10:27:48;26.40;;;12.50;;
73107;SDS011;61559;50.476;15.588;2022-11-23T10:30:22;27.70;;;14.10;;
73107;SDS011;61559;50.476;15.588;2022-11-23T10:32:54;27.70;;;13.10;;
73107;SDS011;61559;50.476;15.588;2022-11-23T10:35:30;27.50;;;12.40;;
73107;SDS011;61559;50.476;15.588;2022-11-23T10:38:14;25.20;;;13.00;;
73107;SDS011;61559;50.476;15.588;2022-11-23T10:40:50;22.60;;;11.70;;
73107;SDS011;61559;50.476;15.588;2022-11-23T10:43:30;23.90;;;12.10;;
73107;SDS011;61559;50.476;15.588;2022-11-23T10:49:14;32.00;;;13.70;;
73107;SDS011;61559;50.476;15.588;2022-11-23T10:51:51;39.20;;;18.10;;
73107;SDS011;61559;50.476;15.588;2022-11-23T10:54:25;37.30;;;17.10;;
73107;SDS011;61559;50.476;15.588;2022-11-23T10:56:59;35.20;;;16.00;;
73107;SDS011;61559;50.476;15.588;2022-11-23T10:59:33;28.20;;;13.90;;
73107;SDS011;61559;50.476;15.588;2022-11-23T11:02:15;33.10;;;16.60;;
73107;SDS011;61559;50.476;15.588;2022-11-23T11:04:48;25.60;;;13.90;;
73107;SDS011;61559;50.476;15.588;2022-11-23T11:07:40;26.60;;;12.50;;
73107;SDS011;61559;50.476;15.588;2022-11-23T11:15:31;27.60;;;13.50;;
73107;SDS011;61559;50.476;15.588;2022-11-23T11:18:15;22.40;;;11.10;;
73107;SDS011;61559;50.476;15.588;2022-11-23T11:20:48;22.70;;;11.90;;
73107;SDS011;61559;50.476;15.588;2022-11-23T11:23:27;28.30;;;12.50;;
73107;SDS011;61559;50.476;15.588;2022-11-23T11:26:06;25.50;;;11.40;;
73107;SDS011;61559;50.476;15.588;2022-11-23T11:28:45;25.40;;;13.00;;
73107;SDS011;61559;50.476;15.588;2022-11-23T11:34:19;24.00;;;12.40;;
73107;SDS011;61559;50.476;15.588;2022-11-23T11:36:59;27.10;;;13.40;;
73107;SDS011;61559;50.476;15.588;2022-11-23T11:39:36;24.70;;;12.20;;
73107;SDS011;61559;50.476;15.588;2022-11-23T11:42:15;24.00;;;11.90;;
73107;SDS011;61559;50.476;15.588;2022-11-23T11:44:50;23.00;;;11.30;;
73107;SDS011;61559;50.476;15.588;2022-11-23T11:47:24;30.30;;;14.80;;
73107;SDS011;61559;50.476;15.588;2022-11-23T11:50:00;28.30;;;13.80;;
73107;SDS011;61559;50.476;15.588;2022-11-23T11:52:43;22.90;;;9.90;;
73107;SDS011;61559;50.476;15.588;2022-11-23T11:55:20;51.70;;;23.10;;
73107;SDS011;61559;50.476;15.588;2022-11-23T11:57:55;45.80;;;20.10;;
73107;SDS011;61559;50.476;15.588;2022-11-23T12:00:31;42.10;;;19.50;;
73107;SDS011;61559;50.476;15.588;2022-11-23T12:03:13;20.30;;;9.80;;
73107;SDS011;61559;50.476;15.588;2022-11-23T12:05:54;24.10;;;12.60;;
73107;SDS011;61559;50.476;15.588;2022-11-23T12:08:34;18.60;;;9.20;;
73107;SDS011;61559;50.476;15.588;2022-11-23T12:11:08;14.70;;;7.40;;
73107;SDS011;61559;50.476;15.588;2022-11-23T12:13:41;17.10;;;8.90;;
73107;SDS011;61559;50.476;15.588;2022-11-23T12:16:17;22.00;;;11.40;;
73107;SDS011;61559;50.476;15.588;2022-11-23T12:19:02;18.60;;;10.00;;
73107;SDS011;61559;50.476;15.588;2022-11-23T12:21:52;19.00;;;10.40;;
73107;SDS011;61559;50.476;15.588;2022-11-23T12:24:43;17.10;;;7.90;;
73107;SDS011;61559;50.476;15.588;2022-11-23T12:27:32;17.90;;;7.80;;
73107;SDS011;61559;50.476;15.588;2022-11-23T12:30:23;16.50;;;8.90;;
73107;SDS011;61559;50.476;15.588;2022-11-23T12:33:04;18.40;;;10.00;;
73107;SDS011;61559;50.476;15.588;2022-11-23T12:35:55;21.30;;;10.90;;
73107;SDS011;61559;50.476;15.588;2022-11-23T12:38:39;21.70;;;10.50;;
73107;SDS011;61559;50.476;15.588;2022-11-23T12:41:23;20.70;;;9.80;;
73107;SDS011;61559;50.476;15.588;2022-11-23T12:44:14;17.50;;;8.70;;
73107;SDS011;61559;50.476;15.588;2022-11-23T12:47:12;25.70;;;10.00;;
73107;SDS011;61559;50.476;15.588;2022-11-23T12:49:56;23.80;;;11.10;;
73107;SDS011;61559;50.476;15.588;2022-11-23T12:52:41;22.90;;;11.30;;
73107;SDS011;61559;50.476;15.588;2022-11-23T12:55:24;47.60;;;24.80;;
73107;SDS011;61559;50.476;15.588;2022-11-23T12:58:02;25.40;;;14.00;;
73107;SDS011;61559;50.476;15.588;2022-11-23T13:00:41;30.90;;;18.70;;
73107;SDS011;61559;50.476;15.588;2022-11-23T13:03:27;33.80;;;19.10;;
73107;SDS011;61559;50.476;15.588;2022-11-23T13:06:19;31.80;;;16.90;;
73107;SDS011;61559;50.476;15.588;2022-11-23T13:09:48;32.80;;;15.40;;
73107;SDS011;61559;50.476;15.588;2022-11-23T13:12:52;23.70;;;12.50;;
73107;SDS011;61559;50.476;15.588;2022-11-23T13:15:48;41.20;;;18.40;;
73107;SDS011;61559;50.476;15.588;2022-11-23T13:18:34;23.50;;;11.80;;
73107;SDS011;61559;50.476;15.588;2022-11-23T13:21:24;30.60;;;13.10;;
73107;SDS011;61559;50.476;15.588;2022-11-23T13:24:03;34.40;;;16.90;;
73107;SDS011;61559;50.476;15.588;2022-11-23T13:29:59;25.20;;;12.10;;
73107;SDS011;61559;50.476;15.588;2022-11-23T13:32:56;19.70;;;9.50;;
73107;SDS011;61559;50.476;15.588;2022-11-23T13:35:59;15.40;;;8.80;;
73107;SDS011;61559;50.476;15.588;2022-11-23T13:38:44;17.40;;;8.10;;
73107;SDS011;61559;50.476;15.588;2022-11-23T13:44:25;18.60;;;10.10;;
73107;SDS011;61559;50.476;15.588;2022-11-23T13:47:00;18.30;;;9.10;;
73107;SDS011;61559;50.476;15.588;2022-11-23T13:49:36;17.50;;;8.70;;
73107;SDS011;61559;50.476;15.588;2022-11-23T13:52:21;17.30;;;9.20;;
73107;SDS011;61559;50.476;15.588;2022-11-23T14:01:09;16.40;;;8.70;;
73107;SDS011;61559;50.476;15.588;2022-11-23T14:04:17;19.50;;;9.50;;
73107;SDS011;61559;50.476;15.588;2022-11-23T14:06:50;17.70;;;9.50;;
73107;SDS011;61559;50.476;15.588;2022-11-23T14:09:27;24.80;;;12.40;;
73107;SDS011;61559;50.476;15.588;2022-11-23T14:12:07;20.80;;;9.20;;
73107;SDS011;61559;50.476;15.588;2022-11-23T14:15:02;19.80;;;9.10;;
73107;SDS011;61559;50.476;15.588;2022-11-23T14:17:47;18.50;;;9.00;;
73107;SDS011;61559;50.476;15.588;2022-11-23T14:20:42;16.10;;;9.00;;
73107;SDS011;61559;50.476;15.588;2022-11-23T14:26:29;15.10;;;8.90;;
73107;SDS011;61559;50.476;15.588;2022-11-23T14:29:16;17.30;;;8.20;;
73107;SDS011;61559;50.476;15.588;2022-11-23T14:32:01;19.70;;;9.30;;
73107;SDS011;61559;50.476;15.588;2022-11-23T14:34:46;17.20;;;8.10;;
73107;SDS011;61559;50.476;15.588;2022-11-23T14:37:26;18.90;;;9.60;;
73107;SDS011;61559;50.476;15.588;2022-11-23T14:40:13;23.60;;;12.50;;
73107;SDS011;61559;50.476;15.588;2022-11-23T14:42:52;30.90;;;14.20;;
73107;SDS011;61559;50.476;15.588;2022-11-23T14:45:26;28.20;;;12.50;;
73107;SDS011;61559;50.476;15.588;2022-11-23T14:50:56;21.30;;;10.20;;
73107;SDS011;61559;50.476;15.588;2022-11-23T14:53:30;18.90;;;9.30;;
73107;SDS011;61559;50.476;15.588;2022-11-23T14:56:04;17.70;;;9.60;;
73107;SDS011;61559;50.476;15.588;2022-11-23T14:58:47;19.10;;;9.60;;
73107;SDS011;61559;50.476;15.588;2022-11-23T15:01:19;19.30;;;10.20;;
73107;SDS011;61559;50.476;15.588;2022-11-23T15:03:55;19.20;;;11.50;;
73107;SDS011;61559;50.476;15.588;2022-11-23T15:06:29;22.40;;;11.10;;
73107;SDS011;61559;50.476;15.588;2022-11-23T15:09:14;18.80;;;9.40;;
73107;SDS011;61559;50.476;15.588;2022-11-23T15:11:52;18.30;;;8.80;;
73107;SDS011;61559;50.476;15.588;2022-11-23T15:14:41;20.20;;;9.10;;
73107;SDS011;61559;50.476;15.588;2022-11-23T15:17:13;18.40;;;9.80;;
73107;SDS011;61559;50.476;15.588;2022-11-23T15:19:52;19.80;;;9.60;;
73107;SDS011;61559;50.476;15.588;2022-11-23T15:22:24;27.20;;;11.60;;
73107;SDS011;61559;50.476;15.588;2022-11-23T15:25:04;19.30;;;10.40;;
73107;SDS011;61559;50.476;15.588;2022-11-23T15:27:39;20.80;;;8.80;;
73107;SDS011;61559;50.476;15.588;2022-11-23T15:32:47;19.20;;;9.60;;
73107;SDS011;61559;50.476;15.588;2022-11-23T15:35:27;28.70;;;12.50;;
73107;SDS011;61559;50.476;15.588;2022-11-23T15:38:01;23.50;;;11.80;;
73107;SDS011;61559;50.476;15.588;2022-11-23T15:40:35;60.00;;;20.50;;
73107;SDS011;61559;50.476;15.588;2022-11-23T15:43:11;52.60;;;19.60;;
73107;SDS011;61559;50.476;15.588;2022-11-23T15:45:57;37.60;;;16.40;;
73107;SDS011;61559;50.476;15.588;2022-11-23T15:48:39;34.70;;;15.80;;
73107;SDS011;61559;50.476;15.588;2022-11-23T15:51:20;32.40;;;14.10;;
73107;SDS011;61559;50.476;15.588;2022-11-23T15:53:56;25.00;;;11.60;;
73107;SDS011;61559;50.476;15.588;2022-11-23T15:56:29;28.70;;;12.50;;
73107;SDS011;61559;50.476;15.588;2022-11-23T15:59:01;21.40;;;11.00;;
73107;SDS011;61559;50.476;15.588;2022-11-23T16:01:45;20.70;;;10.00;;
73107;SDS011;61559;50.476;15.588;2022-11-23T16:04:23;20.30;;;9.80;;
73107;SDS011;61559;50.476;15.588;2022-11-23T16:06:58;21.30;;;9.50;;